Time;durP1;ratioP1;P1;durP2;ratioP2;P2;SDS_P1;SDS_P2;PMS_P1;PMS_P2;Temp;Humidity;BMP_temperature;BMP_pressure;BME280_temperature;BME280_humidity;BME280_pressure;Samples;Min_cycle;Max_cycle;Signal;HPM_P1;HPM_P2
2021/07/08 00:00:09;;;;;;;4.65;2.80;;;18.10;99.90;;;;;;3595584;40;20242;-88
2021/07/08 00:02:36;;;;;;;7.22;2.90;;;17.70;99.90;;;;;;3595615;40;20211;-82
2021/07/08 00:05:07;;;;;;;6.13;3.47;;;17.10;99.90;;;;;;3587206;40;20226;-84
2021/07/08 00:07:35;;;;;;;3.53;3.22;;;16.80;99.90;;;;;;3595622;40;20237;-83
2021/07/08 00:10:02;;;;;;;6.10;3.40;;;17.20;99.90;;;;;;3595493;40;20230;-82
2021/07/08 00:12:29;;;;;;;5.28;2.72;;;17.50;99.90;;;;;;3594372;39;20218;-85
2021/07/08 00:14:56;;;;;;;5.85;2.53;;;17.60;99.90;;;;;;3603243;39;20304;-83
2021/07/08 00:42:07;;;;;;;3.55;2.65;;;17.30;99.90;;;;;;3659317;22;20229;-81
2021/07/08 00:47:23;;;;;;;4.57;2.80;;;17.10;99.90;;;;;;3622498;39;20387;-83
2021/07/08 00:49:51;;;;;;;3.25;2.55;;;17.30;99.90;;;;;;3605987;39;20249;-84
2021/07/08 00:52:19;;;;;;;5.63;3.25;;;17.40;99.90;;;;;;3613656;39;20253;-82
2021/07/08 01:00:42;;;;;;;3.88;2.90;;;17.60;99.90;;;;;;3612231;39;20242;-83
2021/07/08 01:03:10;;;;;;;7.28;3.40;;;17.70;99.90;;;;;;3612898;39;20217;-81
2021/07/08 01:05:41;;;;;;;3.92;3.20;;;17.70;99.90;;;;;;3595766;39;20236;-84
2021/07/08 01:08:09;;;;;;;6.75;2.28;;;17.40;99.90;;;;;;3596004;39;20270;-83
2021/07/08 01:10:36;;;;;;;8.90;3.10;;;17.40;99.90;;;;;;3612763;39;20250;-82
2021/07/08 01:13:29;;;;;;;6.38;2.88;;;17.50;99.90;;;;;;3749348;22;20273;-82
2021/07/08 01:15:58;;;;;;;4.43;3.58;;;17.60;99.90;;;;;;3612451;39;20214;-83
2021/07/08 01:18:25;;;;;;;4.35;3.78;;;17.70;99.90;;;;;;3613061;39;20717;-83
2021/07/08 01:20:52;;;;;;;7.95;4.32;;;17.70;99.90;;;;;;3612901;39;20238;-84
2021/07/08 01:23:20;;;;;;;4.30;3.17;;;17.60;99.90;;;;;;3612917;39;20218;-81
2021/07/08 01:25:48;;;;;;;4.13;2.88;;;17.70;99.90;;;;;;3613123;39;20226;-80
2021/07/08 01:30:48;;;;;;;9.73;3.35;;;17.80;99.90;;;;;;3601811;39;20249;-82
2021/07/08 01:33:15;;;;;;;5.22;2.92;;;17.80;99.90;;;;;;3602461;39;20266;-83
2021/07/08 01:35:42;;;;;;;4.35;3.42;;;17.90;99.90;;;;;;3602501;39;20242;-83
2021/07/08 01:38:09;;;;;;;6.70;2.92;;;17.60;99.90;;;;;;3602786;39;20265;-81
2021/07/08 01:40:39;;;;;;;3.65;2.50;;;17.70;99.90;;;;;;3593947;39;20254;-81
2021/07/08 01:43:06;;;;;;;7.50;3.22;;;17.70;99.90;;;;;;3593926;39;20231;-81
2021/07/08 01:48:55;;;;;;;8.77;4.03;;;17.20;99.90;;;;;;3649390;22;20561;-82
2021/07/08 01:54:20;;;;;;;7.40;3.50;;;16.40;99.90;;;;;;3650619;22;20233;-83
2021/07/08 01:56:49;;;;;;;8.00;3.22;;;16.50;99.90;;;;;;3622050;39;20197;-83
2021/07/08 02:02:21;;;;;;;6.07;3.30;;;16.40;99.90;;;;;;3636373;22;20238;-82
2021/07/08 02:04:48;;;;;;;6.68;3.10;;;16.70;99.90;;;;;;3594001;39;20218;-82
2021/07/08 02:07:15;;;;;;;7.25;2.60;;;16.80;99.90;;;;;;3593919;39;20280;-84
2021/07/08 02:09:42;;;;;;;6.85;3.20;;;16.70;99.90;;;;;;3602386;39;20250;-83
2021/07/08 02:12:35;;;;;;;5.20;3.17;;;16.60;99.90;;;;;;3638490;22;20287;-85
2021/07/08 02:15:03;;;;;;;5.85;3.28;;;16.80;99.90;;;;;;3629721;22;20236;-82
2021/07/08 02:20:14;;;;;;;9.40;3.42;;;17.00;99.90;;;;;;3604860;39;20272;-85
2021/07/08 02:22:42;;;;;;;9.25;3.15;;;17.20;99.90;;;;;;3622587;39;20213;-83
2021/07/08 02:25:11;;;;;;;9.52;2.97;;;17.30;99.90;;;;;;3613938;39;20229;-83
2021/07/08 02:27:40;;;;;;;9.32;2.47;;;17.40;99.90;;;;;;3613849;39;20209;-83
2021/07/08 02:30:09;;;;;;;3.58;2.15;;;17.50;99.90;;;;;;3647451;22;20241;-83
2021/07/08 02:35:28;;;;;;;9.35;3.65;;;17.30;99.90;;;;;;3621823;39;20251;-85
2021/07/08 02:40:45;;;;;;;10.68;4.65;;;16.90;99.90;;;;;;3630570;39;20439;-83
2021/07/08 02:43:13;;;;;;;7.35;4.03;;;17.10;99.90;;;;;;3623824;39;20285;-84
2021/07/08 02:45:42;;;;;;;3.22;2.92;;;17.00;99.90;;;;;;3633575;39;20212;-82
2021/07/08 02:48:13;;;;;;;8.23;3.25;;;16.80;99.90;;;;;;3655437;22;20241;-84
2021/07/08 02:50:42;;;;;;;13.75;4.30;;;16.80;99.90;;;;;;3612521;39;20237;-83
2021/07/08 02:53:09;;;;;;;5.30;3.13;;;16.90;99.90;;;;;;3610858;39;20246;-85
2021/07/08 02:55:37;;;;;;;5.22;3.30;;;17.00;99.90;;;;;;3607858;39;20269;-83
2021/07/08 02:58:04;;;;;;;8.70;3.95;;;17.00;99.90;;;;;;3603474;39;20242;-83
2021/07/08 03:06:11;;;;;;;11.50;4.13;;;17.20;99.90;;;;;;3613214;39;20242;-79
2021/07/08 03:08:44;;;;;;;10.23;3.42;;;17.00;99.90;;;;;;3604810;39;20233;-80
2021/07/08 03:11:11;;;;;;;11.20;4.40;;;17.00;99.90;;;;;;3613446;39;20254;-80
2021/07/08 03:13:38;;;;;;;10.57;4.13;;;17.00;99.90;;;;;;3604960;39;20729;-80
2021/07/08 03:16:06;;;;;;;7.72;3.92;;;16.70;99.90;;;;;;3604900;39;20226;-79
2021/07/08 03:18:33;;;;;;;6.40;4.38;;;16.30;99.90;;;;;;3604724;39;20234;-80
2021/07/08 03:21:00;;;;;;;10.40;4.07;;;16.40;99.90;;;;;;3604820;39;20816;-80
2021/07/08 03:23:29;;;;;;;6.55;4.18;;;16.30;99.90;;;;;;3603444;39;20764;-81
2021/07/08 03:25:56;;;;;;;7.55;3.92;;;16.10;99.90;;;;;;3603376;39;20237;-79
2021/07/08 03:28:23;;;;;;;8.50;4.45;;;15.90;99.90;;;;;;3603345;39;20292;-80
2021/07/08 03:30:50;;;;;;;11.30;5.25;;;15.90;99.90;;;;;;3594506;39;20304;-78
2021/07/08 03:33:17;;;;;;;10.68;4.13;;;15.80;99.90;;;;;;3603338;39;20800;-80
2021/07/08 03:35:44;;;;;;;4.13;3.33;;;15.80;99.90;;;;;;3603263;39;20239;-80
2021/07/08 03:38:11;;;;;;;12.50;4.10;;;15.90;99.90;;;;;;3603328;39;20869;-80
2021/07/08 03:40:39;;;;;;;7.53;3.63;;;15.70;99.90;;;;;;3594537;39;20291;-80
2021/07/08 03:43:06;;;;;;;7.70;4.35;;;15.90;99.90;;;;;;3603274;39;20242;-80
2021/07/08 03:45:33;;;;;;;8.13;5.38;;;15.90;99.90;;;;;;3603258;39;20211;-82
2021/07/08 03:48:01;;;;;;;6.55;4.15;;;16.10;99.90;;;;;;3603219;39;20229;-79
2021/07/08 03:50:32;;;;;;;5.53;3.50;;;16.30;99.90;;;;;;3594479;39;20258;-81
2021/07/08 03:52:59;;;;;;;11.43;4.40;;;16.50;99.90;;;;;;3603149;39;20246;-83
2021/07/08 03:55:28;;;;;;;6.30;3.30;;;16.60;99.90;;;;;;3586094;39;20819;-82
2021/07/08 03:57:57;;;;;;;6.70;3.38;;;16.70;99.90;;;;;;3602887;39;20239;-81
2021/07/08 04:00:28;;;;;;;9.63;3.08;;;16.90;99.90;;;;;;3603082;39;20234;-80
2021/07/08 04:02:56;;;;;;;8.43;4.50;;;16.70;99.90;;;;;;3594434;39;20227;-79
2021/07/08 04:05:25;;;;;;;4.95;3.60;;;16.50;99.90;;;;;;3603190;39;20807;-80
2021/07/08 04:07:53;;;;;;;8.27;4.10;;;16.50;99.90;;;;;;3603113;39;20294;-80
2021/07/08 04:10:24;;;;;;;10.60;4.35;;;16.40;99.90;;;;;;3602911;39;20256;-82
2021/07/08 04:12:52;;;;;;;7.75;3.95;;;16.50;99.90;;;;;;3603050;39;20247;-80
2021/07/08 04:15:21;;;;;;;5.65;3.15;;;16.80;99.90;;;;;;3603047;39;20230;-80
2021/07/08 04:17:48;;;;;;;9.90;4.32;;;17.10;99.90;;;;;;3603113;39;20235;-80
2021/07/08 04:20:19;;;;;;;14.32;4.50;;;17.40;99.90;;;;;;3597518;39;20240;-81
2021/07/08 04:22:47;;;;;;;7.78;4.75;;;17.40;99.90;;;;;;3593011;39;20239;-80
2021/07/08 04:25:18;;;;;;;12.55;5.03;;;17.00;99.90;;;;;;3584278;39;20214;-80
2021/07/08 04:27:45;;;;;;;6.40;4.47;;;17.30;99.90;;;;;;3592855;39;20223;-79
2021/07/08 04:30:16;;;;;;;6.25;4.05;;;17.50;99.90;;;;;;3592797;39;20254;-81
2021/07/08 04:32:44;;;;;;;13.20;8.05;;;17.60;99.90;;;;;;3592943;39;20247;-80
2021/07/08 04:35:17;;;;;;;10.00;4.32;;;17.50;99.90;;;;;;3592941;39;20285;-81
2021/07/08 04:37:46;;;;;;;7.50;3.65;;;17.50;99.90;;;;;;3592911;39;20247;-81
2021/07/08 04:40:15;;;;;;;7.05;3.42;;;17.30;99.90;;;;;;3592497;39;20235;-80
2021/07/08 04:42:43;;;;;;;6.65;3.22;;;17.20;99.90;;;;;;3592856;39;20292;-79
2021/07/08 04:45:11;;;;;;;7.93;3.67;;;17.30;99.90;;;;;;3575887;39;20246;-81
2021/07/08 04:47:39;;;;;;;7.22;3.10;;;17.20;99.90;;;;;;3592728;39;20791;-81
2021/07/08 04:50:18;;;;;;;6.30;3.90;;;17.30;99.90;;;;;;3575737;39;20250;-80
2021/07/08 04:52:46;;;;;;;5.60;3.72;;;17.60;99.90;;;;;;3592625;39;20296;-80
2021/07/08 04:55:16;;;;;;;7.15;4.28;;;17.80;99.90;;;;;;3592708;39;20744;-80
2021/07/08 04:57:44;;;;;;;9.93;3.80;;;18.10;99.90;;;;;;3592834;39;20297;-79
2021/07/08 05:00:18;;;;;;;5.72;3.45;;;18.40;99.90;;;;;;3575704;39;20226;-80
2021/07/08 05:02:45;;;;;;;6.05;3.70;;;18.30;99.90;;;;;;3592651;39;20719;-83
2021/07/08 05:05:15;;;;;;;3.45;2.67;;;18.10;99.90;;;;;;3583964;39;20231;-82
2021/07/08 05:07:42;;;;;;;5.85;3.50;;;17.80;99.90;;;;;;3592688;39;20247;-79
2021/07/08 05:10:13;;;;;;;6.18;3.28;;;17.50;99.90;;;;;;3591802;39;20250;-80
2021/07/08 05:12:41;;;;;;;8.77;4.00;;;17.70;99.90;;;;;;3602749;39;20249;-81
2021/07/08 05:15:15;;;;;;;8.95;3.35;;;17.90;99.90;;;;;;3594082;39;20238;-81
2021/07/08 05:17:43;;;;;;;7.82;4.15;;;18.10;99.90;;;;;;3602699;39;20238;-80
2021/07/08 05:20:12;;;;;;;8.88;4.45;;;18.20;99.90;;;;;;3601985;39;20234;-81
2021/07/08 05:22:45;;;;;;;3.55;3.25;;;18.30;99.90;;;;;;3594094;39;20210;-82
2021/07/08 05:25:15;;;;;;;8.43;3.53;;;18.50;99.90;;;;;;3602594;39;20241;-80
2021/07/08 05:27:43;;;;;;;7.35;3.80;;;18.60;99.90;;;;;;3598290;39;20730;-80
2021/07/08 05:30:12;;;;;;;6.93;3.85;;;18.70;99.90;;;;;;3600933;39;21016;-80
2021/07/08 05:32:40;;;;;;;8.85;6.90;;;18.70;99.90;;;;;;3602500;39;20828;-81
2021/07/08 05:35:08;;;;;;;6.03;3.90;;;18.80;99.90;;;;;;3593978;39;20779;-81
2021/07/08 05:37:38;;;;;;;5.75;3.88;;;18.90;99.90;;;;;;3602527;39;20242;-80
2021/07/08 05:40:08;;;;;;;3.30;2.97;;;18.80;99.90;;;;;;3593784;39;20818;-80
2021/07/08 05:42:36;;;;;;;11.77;3.67;;;18.10;99.90;;;;;;3602248;39;20970;-80
2021/07/08 05:45:03;;;;;;;7.10;3.28;;;18.00;99.90;;;;;;3583716;39;20231;-79
2021/07/08 05:47:41;;;;;;;12.77;3.97;;;17.80;99.90;;;;;;3598293;39;20227;-80
2021/07/08 05:50:09;;;;;;;10.95;4.10;;;18.00;99.90;;;;;;3593729;39;20237;-80
2021/07/08 05:52:37;;;;;;;4.80;3.67;;;18.00;99.90;;;;;;3602481;39;20776;-82
2021/07/08 05:55:05;;;;;;;9.00;3.92;;;18.00;99.90;;;;;;3593742;39;20242;-79
2021/07/08 05:57:33;;;;;;;7.60;3.30;;;18.10;99.90;;;;;;3602126;39;20250;-80
2021/07/08 06:00:00;;;;;;;10.52;3.20;;;18.20;99.90;;;;;;3602284;39;20246;-80
2021/07/08 06:02:27;;;;;;;11.63;3.92;;;18.30;99.90;;;;;;3602412;39;20235;-80
2021/07/08 06:05:01;;;;;;;7.70;3.33;;;18.30;99.90;;;;;;3593382;39;20218;-80
2021/07/08 06:07:48;;;;;;;7.22;3.65;;;18.70;99.90;;;;;;3602350;39;20246;-80
2021/07/08 06:10:16;;;;;;;10.18;3.80;;;18.80;99.90;;;;;;3600094;39;20253;-79
2021/07/08 06:12:46;;;;;;;7.88;4.25;;;18.50;99.90;;;;;;3595174;39;20304;-81
2021/07/08 06:15:13;;;;;;;12.18;3.90;;;18.60;99.90;;;;;;3592256;39;20295;-80
2021/07/08 06:17:40;;;;;;;10.57;3.28;;;18.70;99.90;;;;;;3596468;39;20234;-80
2021/07/08 06:20:09;;;;;;;9.18;3.28;;;18.70;99.90;;;;;;3597074;39;20243;-80
2021/07/08 06:22:36;;;;;;;5.72;3.53;;;18.60;99.90;;;;;;3592054;39;20708;-81
2021/07/08 06:25:04;;;;;;;5.78;3.13;;;18.80;99.90;;;;;;3592235;39;20290;-80
2021/07/08 06:27:31;;;;;;;10.60;3.60;;;19.20;99.90;;;;;;3598688;39;20266;-81
2021/07/08 06:29:59;;;;;;;15.98;5.28;;;19.10;99.90;;;;;;3597372;39;20727;-79
2021/07/08 06:32:26;;;;;;;11.10;3.50;;;19.40;99.90;;;;;;3592116;39;20754;-81
2021/07/08 06:34:53;;;;;;;9.13;3.63;;;19.30;99.90;;;;;;3596196;39;20238;-81
2021/07/08 06:37:20;;;;;;;6.38;3.30;;;19.20;99.90;;;;;;3593673;39;20226;-84
2021/07/08 06:39:47;;;;;;;8.88;3.25;;;19.30;99.90;;;;;;3601690;39;20304;-83
2021/07/08 06:45:12;;;;;;;14.63;5.93;;;19.20;99.90;;;;;;3593569;39;20216;-80
2021/07/08 06:47:42;;;;;;;15.07;4.28;;;19.30;99.90;;;;;;3595770;39;20238;-80
2021/07/08 06:50:10;;;;;;;8.07;3.17;;;19.20;99.90;;;;;;3594386;39;20246;-83
2021/07/08 06:52:38;;;;;;;5.70;2.72;;;19.50;99.90;;;;;;3591806;39;20238;-86
2021/07/08 06:55:05;;;;;;;5.50;3.00;;;19.50;99.90;;;;;;3592032;39;20281;-81
2021/07/08 06:57:33;;;;;;;5.35;2.60;;;19.30;99.90;;;;;;3592060;39;20239;-80
2021/07/08 07:00:00;;;;;;;3.75;3.28;;;19.40;99.90;;;;;;3590627;39;20235;-80
2021/07/08 07:02:28;;;;;;;4.75;3.30;;;19.50;99.90;;;;;;3591960;39;20238;-80
2021/07/08 07:04:55;;;;;;;8.05;2.90;;;19.80;99.90;;;;;;3600338;39;20215;-82
2021/07/08 07:07:22;;;;;;;4.90;3.05;;;19.70;99.90;;;;;;3593848;39;20247;-80
2021/07/08 07:09:49;;;;;;;3.80;2.60;;;19.70;99.90;;;;;;3593646;39;20855;-80
2021/07/08 07:12:16;;;;;;;7.45;3.10;;;19.90;99.90;;;;;;3594947;39;20840;-80
2021/07/08 07:14:43;;;;;;;7.60;2.83;;;20.10;99.90;;;;;;3591794;39;20250;-83
2021/07/08 07:17:10;;;;;;;6.63;2.70;;;20.40;99.90;;;;;;3594779;39;20218;-81
2021/07/08 07:19:38;;;;;;;5.63;2.90;;;20.80;99.90;;;;;;3601692;39;20238;-80
2021/07/08 07:22:05;;;;;;;3.72;2.17;;;20.60;99.90;;;;;;3601331;39;20233;-82
2021/07/08 07:24:32;;;;;;;7.63;4.53;;;20.70;99.90;;;;;;3592388;39;20231;-81
2021/07/08 07:26:59;;;;;;;6.78;3.47;;;20.90;99.90;;;;;;3596472;39;20304;-79
2021/07/08 07:29:26;;;;;;;6.32;2.50;;;21.40;99.90;;;;;;3601546;39;20234;-80
2021/07/08 07:31:53;;;;;;;3.60;2.47;;;21.90;99.90;;;;;;3602078;39;20226;-79
2021/07/08 07:34:20;;;;;;;4.75;2.88;;;21.70;99.90;;;;;;3601804;39;20420;-82
2021/07/08 07:36:49;;;;;;;4.55;2.38;;;21.60;99.90;;;;;;3599019;39;20203;-81
2021/07/08 07:39:16;;;;;;;5.10;2.80;;;21.70;99.90;;;;;;3602167;39;20289;-79
2021/07/08 07:41:48;;;;;;;5.38;2.80;;;21.50;99.90;;;;;;3593226;39;20231;-79
2021/07/08 07:44:15;;;;;;;5.05;2.22;;;21.40;99.90;;;;;;3600227;39;20304;-83
2021/07/08 07:46:42;;;;;;;5.88;1.85;;;21.30;99.90;;;;;;3593811;39;20241;-80
2021/07/08 07:49:11;;;;;;;7.45;2.53;;;21.20;99.90;;;;;;3587483;39;20242;-81
2021/07/08 07:51:38;;;;;;;6.53;2.13;;;21.40;99.90;;;;;;3602980;39;20231;-81
2021/07/08 07:54:06;;;;;;;4.20;2.35;;;21.70;99.90;;;;;;3597366;39;20242;-79
2021/07/08 07:56:33;;;;;;;6.72;2.13;;;21.90;99.90;;;;;;3593174;39;20239;-84
2021/07/08 07:59:00;;;;;;;4.85;2.50;;;21.80;99.90;;;;;;3595646;39;20242;-78
2021/07/08 08:01:27;;;;;;;4.65;1.90;;;21.70;99.90;;;;;;3595597;39;20246;-84
2021/07/08 08:03:56;;;;;;;6.38;2.30;;;21.80;99.90;;;;;;3602256;39;20744;-79
2021/07/08 08:09:09;;;;;;;4.13;2.00;;;21.70;99.90;;;;;;3599207;39;20599;-79
2021/07/08 08:11:36;;;;;;;5.85;2.67;;;21.30;99.90;;;;;;3602843;39;20241;-81
2021/07/08 08:14:03;;;;;;;6.25;2.72;;;21.60;99.90;;;;;;3603177;39;20213;-84
2021/07/08 08:16:33;;;;;;;5.55;2.47;;;21.90;99.90;;;;;;3603098;39;20235;-80
2021/07/08 08:19:00;;;;;;;4.70;2.30;;;21.90;99.90;;;;;;3603012;39;20246;-78
2021/07/08 08:21:27;;;;;;;8.75;2.92;;;22.10;99.90;;;;;;3603104;39;20235;-80
2021/07/08 08:23:54;;;;;;;6.82;2.40;;;21.70;99.90;;;;;;3591293;39;20872;-81
2021/07/08 08:26:23;;;;;;;4.85;2.30;;;21.90;99.90;;;;;;3595584;39;20258;-80
2021/07/08 08:28:51;;;;;;;4.68;2.58;;;21.90;99.90;;;;;;3603001;39;20255;-80
2021/07/08 08:31:19;;;;;;;5.45;2.97;;;21.90;99.90;;;;;;3602425;39;20230;-83
2021/07/08 08:33:46;;;;;;;5.75;2.75;;;22.10;99.90;;;;;;3602973;39;20250;-82
2021/07/08 08:36:13;;;;;;;3.58;2.35;;;22.20;99.90;;;;;;3603063;39;20235;-80
2021/07/08 08:38:40;;;;;;;5.25;2.88;;;22.30;99.90;;;;;;3603049;39;20231;-80
2021/07/08 08:41:07;;;;;;;5.18;3.20;;;22.40;99.90;;;;;;3598406;39;20251;-85
2021/07/08 08:43:36;;;;;;;5.82;2.67;;;22.70;99.90;;;;;;3592887;39;20210;-82
2021/07/08 08:46:07;;;;;;;3.47;2.45;;;23.00;99.90;;;;;;3592993;39;20238;-79
2021/07/08 08:48:35;;;;;;;3.40;2.45;;;22.80;99.90;;;;;;3594923;39;20239;-83
2021/07/08 08:51:06;;;;;;;4.10;2.88;;;22.80;99.90;;;;;;3600613;39;20257;-80
2021/07/08 08:53:33;;;;;;;3.03;2.50;;;22.70;99.90;;;;;;3592770;39;20235;-80
2021/07/08 08:56:00;;;;;;;4.05;2.55;;;22.90;99.90;;;;;;3590223;39;20251;-81
2021/07/08 08:58:27;;;;;;;7.55;2.58;;;23.10;99.90;;;;;;3595492;39;20234;-79
2021/07/08 09:00:57;;;;;;;2.67;2.42;;;22.70;99.90;;;;;;3600638;39;20308;-79
2021/07/08 09:03:26;;;;;;;4.78;2.67;;;22.20;99.90;;;;;;3594137;39;20317;-81
2021/07/08 09:06:08;;;;;;;4.55;2.28;;;22.50;99.90;;;;;;3596183;39;20232;-80
2021/07/08 09:08:37;;;;;;;5.05;2.60;;;22.40;99.90;;;;;;3594983;39;20247;-80
2021/07/08 09:11:10;;;;;;;9.93;4.07;;;22.30;99.90;;;;;;3592566;39;20231;-82
2021/07/08 09:14:05;;;;;;;3.63;2.63;;;22.50;99.90;;;;;;3592767;39;20277;-82
2021/07/08 09:16:35;;;;;;;5.65;2.42;;;22.70;99.90;;;;;;3580615;39;20231;-79
2021/07/08 09:19:09;;;;;;;3.83;2.60;;;23.00;99.90;;;;;;3602532;39;20254;-80
2021/07/08 09:21:39;;;;;;;9.43;2.15;;;23.20;99.90;;;;;;3602700;39;20237;-80
2021/07/08 09:24:15;;;;;;;4.50;2.65;;;23.50;99.90;;;;;;3602662;39;20231;-82
2021/07/08 09:26:44;;;;;;;2.65;1.90;;;23.60;99.90;;;;;;3594017;39;20226;-80
2021/07/08 09:29:16;;;;;;;4.72;2.92;;;23.60;99.90;;;;;;3602178;39;20254;-80
2021/07/08 09:31:49;;;;;;;4.22;2.72;;;23.60;99.90;;;;;;3595392;39;20208;-80
2021/07/08 09:34:18;;;;;;;3.85;2.53;;;23.70;99.90;;;;;;3592635;39;20226;-79
2021/07/08 09:36:49;;;;;;;4.65;2.38;;;23.90;99.90;;;;;;3592554;39;20231;-82
2021/07/08 09:39:17;;;;;;;3.25;1.98;;;23.80;99.90;;;;;;3592444;39;20234;-88
2021/07/08 09:41:52;;;;;;;6.03;2.25;;;23.80;99.90;;;;;;3583907;39;20234;-81
2021/07/08 09:44:21;;;;;;;3.90;2.50;;;23.70;99.90;;;;;;3592530;39;20243;-80
2021/07/08 09:46:50;;;;;;;3.40;2.22;;;23.80;99.90;;;;;;3592507;39;20223;-79
2021/07/08 09:49:18;;;;;;;14.65;4.88;;;23.90;99.90;;;;;;3592417;39;20292;-81
2021/07/08 09:51:45;;;;;;;8.52;3.30;;;24.10;99.90;;;;;;3592206;39;20243;-79
2021/07/08 09:54:16;;;;;;;7.47;2.50;;;24.30;99.90;;;;;;3594588;39;20222;-84
2021/07/08 09:56:53;;;;;;;6.10;2.55;;;24.50;99.90;;;;;;3600446;39;20254;-82
2021/07/08 09:59:22;;;;;;;4.97;3.95;;;24.60;99.90;;;;;;3602296;39;20249;-79
2021/07/08 10:01:58;;;;;;;6.38;3.13;;;24.80;99.90;;;;;;3587449;39;20231;-84
2021/07/08 10:04:26;;;;;;;7.75;2.70;;;24.90;99.90;;;;;;3597891;39;20229;-80
2021/07/08 10:06:54;;;;;;;8.57;2.97;;;25.00;99.90;;;;;;3592093;39;20259;-82
2021/07/08 10:09:23;;;;;;;3.28;2.42;;;25.10;99.90;;;;;;3598100;39;20289;-81
2021/07/08 10:11:54;;;;;;;6.57;3.67;;;25.10;99.90;;;;;;3602402;39;20242;-81
2021/07/08 10:14:22;;;;;;;4.95;2.00;;;25.00;99.90;;;;;;3602399;39;20234;-81
2021/07/08 10:16:51;;;;;;;7.32;3.00;;;25.00;99.90;;;;;;3602302;39;20281;-81
2021/07/08 10:19:21;;;;;;;5.35;2.58;;;25.00;99.90;;;;;;3602227;39;20257;-83
2021/07/08 10:21:49;;;;;;;8.00;2.08;;;25.10;99.90;;;;;;3586593;39;20285;-86
2021/07/08 10:24:19;;;;;;;3.67;2.38;;;25.30;99.90;;;;;;3583664;39;20277;-83
2021/07/08 10:26:47;;;;;;;3.88;2.03;;;25.20;99.90;;;;;;3591964;39;20292;-81
2021/07/08 10:29:15;;;;;;;6.63;2.78;;;25.50;99.90;;;;;;3583442;39;20300;-82
2021/07/08 10:31:47;;;;;;;7.25;2.50;;;25.90;99.90;;;;;;3592216;39;20239;-80
2021/07/08 10:34:16;;;;;;;13.18;2.50;;;26.00;99.90;;;;;;3592077;39;20324;-82
2021/07/08 10:36:46;;;;;;;5.50;2.50;;;26.00;99.90;;;;;;3592118;39;20280;-83
2021/07/08 10:39:15;;;;;;;5.43;2.45;;;26.00;99.90;;;;;;3592027;39;20235;-81
2021/07/08 10:41:52;;;;;;;7.72;2.80;;;25.70;99.90;;;;;;3592061;39;20227;-81
2021/07/08 10:44:41;;;;;;;3.28;2.10;;;25.80;99.90;;;;;;3597690;39;20238;-83
2021/07/08 10:47:32;;;;;;;4.47;2.30;;;25.70;99.90;;;;;;3602501;39;20826;-82
2021/07/08 10:50:01;;;;;;;10.60;4.68;;;26.10;99.90;;;;;;3591779;39;20293;-82
2021/07/08 10:52:44;;;;;;;2.47;1.80;;;26.20;99.90;;;;;;3591997;39;20223;-82
2021/07/08 10:55:32;;;;;;;5.63;2.75;;;26.60;99.90;;;;;;3595994;39;20245;-82
2021/07/08 10:58:01;;;;;;;6.90;1.98;;;26.30;99.90;;;;;;3593485;39;20763;-81
2021/07/08 11:00:47;;;;;;;5.53;2.60;;;26.40;99.90;;;;;;3601916;39;20250;-84
2021/07/08 11:03:36;;;;;;;5.13;2.47;;;26.40;99.90;;;;;;3602007;39;20233;-82
2021/07/08 11:06:22;;;;;;;4.78;2.03;;;26.60;99.90;;;;;;3602617;39;20237;-81
2021/07/08 11:08:57;;;;;;;2.50;2.15;;;26.70;99.90;;;;;;3597512;39;20242;-86
2021/07/08 11:12:00;;;;;;;3.95;2.17;;;27.00;99.90;;;;;;3593464;39;20661;-81
2021/07/08 11:14:33;;;;;;;7.20;2.47;;;27.00;99.90;;;;;;3597012;39;20254;-81
2021/07/08 11:17:03;;;;;;;3.58;1.95;;;27.10;99.90;;;;;;3603582;39;20235;-84
2021/07/08 11:19:38;;;;;;;5.25;1.88;;;27.20;99.90;;;;;;3603273;39;20391;-81
2021/07/08 11:22:09;;;;;;;6.55;2.42;;;27.30;99.90;;;;;;3603299;39;20735;-82
2021/07/08 11:24:47;;;;;;;2.42;1.85;;;27.40;99.90;;;;;;3599392;39;20242;-82
2021/07/08 11:27:16;;;;;;;5.22;3.70;;;27.50;99.90;;;;;;3593209;39;20297;-81
2021/07/08 11:29:45;;;;;;;3.58;1.75;;;27.40;99.90;;;;;;3595158;39;20303;-83
2021/07/08 11:32:24;;;;;;;2.30;1.73;;;27.20;99.90;;;;;;3601150;39;20211;-81
2021/07/08 11:34:58;;;;;;;3.70;1.90;;;26.90;99.90;;;;;;3589080;39;20777;-82
2021/07/08 11:37:26;;;;;;;3.95;1.58;;;26.90;99.90;;;;;;3584658;39;20255;-89
2021/07/08 11:40:00;;;;;;;3.83;1.95;;;27.20;99.90;;;;;;3594202;39;20881;-82
2021/07/08 11:42:31;;;;;;;2.10;1.70;;;27.30;99.90;;;;;;3603505;39;20250;-81
2021/07/08 11:45:07;;;;;;;2.38;1.50;;;27.30;99.90;;;;;;3601728;39;20218;-82
2021/07/08 11:47:42;;;;;;;2.55;1.73;;;27.00;99.90;;;;;;3593884;39;20234;-82
2021/07/08 11:50:21;;;;;;;6.93;3.72;;;27.10;99.90;;;;;;3606946;39;20238;-81
2021/07/08 11:52:49;;;;;;;4.05;2.65;;;27.10;99.90;;;;;;3603324;39;20226;-80
2021/07/08 11:55:29;;;;;;;3.88;2.00;;;27.10;99.90;;;;;;3603586;39;20229;-80
2021/07/08 11:57:59;;;;;;;2.75;1.90;;;27.10;99.90;;;;;;3602345;39;20239;-82
2021/07/08 12:00:31;;;;;;;6.25;2.25;;;27.40;99.90;;;;;;3603150;39;20309;-83
2021/07/08 12:02:59;;;;;;;4.53;2.15;;;27.30;99.90;;;;;;3607843;39;20242;-81
2021/07/08 12:05:27;;;;;;;5.47;2.58;;;27.70;99.90;;;;;;3603235;39;20284;-84
2021/07/08 12:07:59;;;;;;;3.30;1.83;;;27.90;99.90;;;;;;3594479;39;20233;-85
2021/07/08 12:10:31;;;;;;;4.47;2.40;;;27.90;99.90;;;;;;3603170;39;20239;-82
2021/07/08 12:13:01;;;;;;;6.70;2.25;;;28.00;99.90;;;;;;3603055;39;20247;-86
2021/07/08 12:15:30;;;;;;;3.97;2.00;;;28.00;99.90;;;;;;3603272;39;20242;-79
2021/07/08 12:17:58;;;;;;;4.70;2.40;;;28.00;99.90;;;;;;3602788;39;20303;-88
2021/07/08 12:20:35;;;;;;;3.40;1.92;;;28.30;99.90;;;;;;3600683;39;20254;-84
2021/07/08 12:23:04;;;;;;;4.07;2.08;;;28.10;99.90;;;;;;3605572;39;20237;-85
2021/07/08 12:25:33;;;;;;;4.10;2.10;;;27.80;99.90;;;;;;3593822;39;20243;-84
2021/07/08 12:28:01;;;;;;;4.32;1.70;;;28.00;99.90;;;;;;3602903;39;20249;-83
2021/07/08 12:30:34;;;;;;;3.58;2.05;;;28.20;99.90;;;;;;3590311;39;20261;-82
2021/07/08 12:33:08;;;;;;;5.95;2.25;;;28.50;99.90;;;;;;3592839;39;20241;-84
2021/07/08 12:35:45;;;;;;;5.53;2.30;;;28.40;99.90;;;;;;3584700;39;20685;-83
2021/07/08 12:38:17;;;;;;;6.80;2.20;;;28.80;99.90;;;;;;3593025;39;20283;-85
2021/07/08 12:41:01;;;;;;;5.20;1.88;;;29.10;99.90;;;;;;3592980;39;20227;-85
2021/07/08 12:43:28;;;;;;;3.72;1.33;;;29.20;99.90;;;;;;3594224;39;20227;-83
2021/07/08 12:46:11;;;;;;;5.53;1.80;;;29.10;99.90;;;;;;3593328;39;20230;-82
2021/07/08 12:48:42;;;;;;;2.88;1.48;;;29.30;99.90;;;;;;3600422;39;20254;-86
2021/07/08 12:51:13;;;;;;;1.95;1.10;;;29.40;99.90;;;;;;3602839;39;20234;-84
2021/07/08 12:54:17;;;;;;;6.45;2.38;;;28.90;99.90;;;;;;3594224;39;20239;-85
2021/07/08 12:57:04;;;;;;;4.15;1.70;;;29.00;99.90;;;;;;3594066;39;20222;-83
2021/07/08 12:59:31;;;;;;;2.13;1.80;;;29.10;99.90;;;;;;3591587;39;20246;-84
2021/07/08 13:01:58;;;;;;;3.53;1.67;;;29.50;99.90;;;;;;3602497;39;20215;-84
2021/07/08 13:04:33;;;;;;;2.97;1.42;;;29.60;99.90;;;;;;3602695;39;20262;-82
2021/07/08 13:07:01;;;;;;;4.55;1.80;;;29.40;99.90;;;;;;3599686;39;20725;-87
2021/07/08 13:09:30;;;;;;;6.03;2.30;;;29.20;99.90;;;;;;3591812;39;20254;-85
2021/07/08 13:11:58;;;;;;;2.53;1.60;;;28.90;99.90;;;;;;3602412;39;20275;-83
2021/07/08 13:14:55;;;;;;;2.90;1.58;;;28.40;99.90;;;;;;3585201;39;20793;-85
2021/07/08 13:17:29;;;;;;;4.30;1.98;;;28.10;99.90;;;;;;3598424;39;20253;-84
2021/07/08 13:20:07;;;;;;;2.38;1.90;;;28.20;99.90;;;;;;3602724;39;20262;-87
2021/07/08 13:36:10;;;;;;;3.17;1.88;;;27.00;99.90;;;;;;1146007;22;21802;-79
2021/07/08 13:38:38;;;;;;;5.70;2.03;;;26.50;99.90;;;;;;3599860;39;20230;-81
2021/07/08 13:41:08;;;;;;;3.85;1.80;;;26.30;99.90;;;;;;3592416;40;20239;-81
2021/07/08 13:43:42;;;;;;;4.13;1.98;;;26.40;99.90;;;;;;3588297;39;20222;-80
2021/07/08 13:46:22;;;;;;;6.90;2.08;;;26.40;99.90;;;;;;3602594;40;20238;-81
2021/07/08 13:48:52;;;;;;;3.38;1.83;;;26.40;99.90;;;;;;3602276;40;20237;-79
2021/07/08 13:51:22;;;;;;;8.40;2.35;;;26.40;99.90;;;;;;3593390;40;20231;-79
2021/07/08 13:53:51;;;;;;;4.43;2.13;;;26.50;99.90;;;;;;3602008;40;20258;-80
2021/07/08 13:56:19;;;;;;;6.03;2.10;;;26.30;99.90;;;;;;3599728;40;20246;-82
2021/07/08 13:58:48;;;;;;;2.65;1.67;;;26.20;99.90;;;;;;3595667;40;20231;-80
2021/07/08 14:02:05;;;;;;;2.08;1.67;;;26.20;99.90;;;;;;3595521;40;20222;-80
2021/07/08 14:04:35;;;;;;;2.95;1.33;;;26.20;99.90;;;;;;3589700;40;20219;-79
2021/07/08 14:07:04;;;;;;;2.83;1.80;;;26.20;99.90;;;;;;3591842;40;20549;-80
2021/07/08 14:09:31;;;;;;;3.53;1.58;;;26.20;99.90;;;;;;3583198;40;20250;-78
2021/07/08 14:12:00;;;;;;;2.05;1.50;;;26.20;99.90;;;;;;3592218;40;20289;-79
2021/07/08 14:14:28;;;;;;;3.95;1.70;;;26.10;99.90;;;;;;3592135;40;20234;-81
2021/07/08 14:16:57;;;;;;;4.10;1.60;;;26.00;99.90;;;;;;3591997;40;20615;-81
2021/07/08 14:19:24;;;;;;;2.58;1.50;;;26.00;99.90;;;;;;3583183;40;20611;-81